createdAt,value
2023-01-28T00:03:05.757Z,5.90
2023-01-28T00:07:10.989Z,7.30
2023-01-28T00:11:16.412Z,8.40
2023-01-28T00:15:21.629Z,8.10
2023-01-28T00:19:26.817Z,6.30
2023-01-28T00:23:33.078Z,7.90
2023-01-28T00:31:42.088Z,8.00
2023-01-28T00:35:48.003Z,7.00
2023-01-28T00:39:53.250Z,7.90
2023-01-28T00:43:58.758Z,7.80
2023-01-28T00:48:04.506Z,7.30
2023-01-28T00:52:09.768Z,6.10
2023-01-28T00:56:15.982Z,5.60
2023-01-28T01:04:27.617Z,6.30
2023-01-28T01:08:36.065Z,6.90
2023-01-28T01:12:41.556Z,6.70
2023-01-28T01:16:46.899Z,5.20
2023-01-28T01:20:57.053Z,6.80
2023-01-28T01:25:02.336Z,6.40
2023-01-28T01:29:09.922Z,6.60
2023-01-28T01:33:15.522Z,5.60
2023-01-28T01:37:20.745Z,4.80
2023-01-28T01:41:27.438Z,5.60
2023-01-28T01:45:34.293Z,6.20
2023-01-28T01:49:39.800Z,6.30
2023-01-28T01:53:46.056Z,5.10
2023-01-28T02:01:55.256Z,5.70
2023-01-28T02:06:00.770Z,4.90
2023-01-28T02:10:06.778Z,5.30
2023-01-28T02:14:19.450Z,5.30
2023-01-28T02:18:31.014Z,5.00
2023-01-28T02:23:02.143Z,5.00
2023-01-28T02:27:15.858Z,4.60
2023-01-28T02:31:24.260Z,4.80
2023-01-28T02:35:32.788Z,4.50
2023-01-28T02:39:41.456Z,5.10
2023-01-28T02:43:47.711Z,5.70
2023-01-28T02:47:59.648Z,5.20
2023-01-28T02:52:11.119Z,4.90
2023-01-28T02:56:21.347Z,5.50
2023-01-28T03:00:28.415Z,4.50
2023-01-28T03:04:37.715Z,4.10
2023-01-28T03:09:02.891Z,3.90
2023-01-28T03:13:25.752Z,4.90
2023-01-28T03:17:52.592Z,5.90
2023-01-28T03:22:15.410Z,5.00
2023-01-28T03:26:40.209Z,5.10
2023-01-28T03:31:06.682Z,5.00
2023-01-28T03:35:30.045Z,5.00
2023-01-28T03:39:35.288Z,5.40
2023-01-28T03:43:41.385Z,4.50
2023-01-28T03:47:46.662Z,5.30
2023-01-28T03:51:51.863Z,5.10
2023-01-28T03:55:57.757Z,5.40
2023-01-28T04:00:03.091Z,5.60
2023-01-28T04:04:08.323Z,5.00
2023-01-28T04:08:13.916Z,4.80
2023-01-28T04:12:19.569Z,6.20
2023-01-28T04:16:24.842Z,5.20
2023-01-28T04:20:30.356Z,4.50
2023-01-28T04:24:35.567Z,4.60
2023-01-28T04:28:40.842Z,5.20
2023-01-28T04:32:46.247Z,5.60
2023-01-28T04:36:51.443Z,5.70
2023-01-28T04:40:56.654Z,5.00
2023-01-28T04:45:02.023Z,5.60
2023-01-28T04:49:07.218Z,4.70
2023-01-28T04:53:12.794Z,5.40
2023-01-28T04:57:18.016Z,4.90
2023-01-28T05:01:23.680Z,4.40
2023-01-28T05:05:28.902Z,7.30
2023-01-28T05:09:34.106Z,5.70
2023-01-28T05:13:39.847Z,6.00
2023-01-28T05:17:45.274Z,5.20
2023-01-28T05:21:50.523Z,5.00
2023-01-28T05:25:55.737Z,5.60
2023-01-28T05:30:01.180Z,5.00
2023-01-28T05:34:06.370Z,7.40
2023-01-28T05:38:15.134Z,6.40
2023-01-28T05:42:22.595Z,7.00
2023-01-28T05:46:27.839Z,5.00
2023-01-28T05:50:33.077Z,5.80
2023-01-28T05:54:38.301Z,5.30
2023-01-28T05:58:47.172Z,4.90
2023-01-28T06:02:53.702Z,5.10
2023-01-28T06:06:58.989Z,5.40
2023-01-28T06:11:04.233Z,4.70
2023-01-28T06:15:10.383Z,4.90
2023-01-28T06:23:19.241Z,4.80
2023-01-28T06:27:24.429Z,4.40
2023-01-28T06:31:29.942Z,4.70
2023-01-28T06:35:35.141Z,4.80
2023-01-28T06:39:40.356Z,4.90
2023-01-28T06:43:45.561Z,4.60
2023-01-28T06:47:50.869Z,5.10
2023-01-28T06:51:56.064Z,3.80
2023-01-28T06:56:01.271Z,4.40
2023-01-28T07:00:10.601Z,5.50
2023-01-28T07:04:15.847Z,4.60
2023-01-28T07:08:21.077Z,5.00
2023-01-28T07:12:26.313Z,4.80
2023-01-28T07:16:31.568Z,4.20
2023-01-28T07:20:36.795Z,5.20
2023-01-28T07:24:42.066Z,5.10
2023-01-28T07:28:47.277Z,4.20
2023-01-28T07:32:55.896Z,5.00
2023-01-28T07:37:01.086Z,6.10
2023-01-28T07:41:07.100Z,11.80
2023-01-28T07:45:12.887Z,12.40
2023-01-28T07:49:18.119Z,7.80
2023-01-28T07:53:23.331Z,7.10
2023-01-28T07:57:30.286Z,6.20
2023-01-28T08:01:35.522Z,4.40
2023-01-28T08:05:43.423Z,5.50
2023-01-28T08:09:48.616Z,4.70
2023-01-28T08:13:53.857Z,5.50
2023-01-28T08:17:59.637Z,4.20
2023-01-28T08:22:04.850Z,4.70
2023-01-28T08:26:10.073Z,4.90
2023-01-28T08:30:15.980Z,4.80
2023-01-28T08:34:21.509Z,5.30
2023-01-28T08:38:26.698Z,4.50
2023-01-28T08:42:32.168Z,3.10
2023-01-28T08:46:37.387Z,5.00
2023-01-28T08:50:42.960Z,4.10
2023-01-28T08:54:48.210Z,4.60
2023-01-28T08:58:53.444Z,4.30
2023-01-28T09:02:58.696Z,4.80
2023-01-28T09:07:04.011Z,3.50
2023-01-28T09:11:09.261Z,4.50
2023-01-28T09:15:14.577Z,4.90
2023-01-28T09:19:19.839Z,4.90
2023-01-28T09:23:25.072Z,4.90
2023-01-28T09:27:30.272Z,3.50
2023-01-28T09:31:35.569Z,5.20
2023-01-28T09:35:40.828Z,4.10
2023-01-28T09:39:46.075Z,4.90
2023-01-28T09:43:57.256Z,5.10
2023-01-28T09:48:04.561Z,3.90
2023-01-28T09:52:13.569Z,4.50
2023-01-28T09:56:25.654Z,5.20
2023-01-28T10:00:33.443Z,5.20
2023-01-28T10:04:45.061Z,5.00
2023-01-28T10:09:11.674Z,4.70
2023-01-28T10:13:22.159Z,4.70
2023-01-28T10:17:30.005Z,5.10
2023-01-28T10:21:37.680Z,4.90
2023-01-28T10:25:45.112Z,4.40
2023-01-28T10:29:51.391Z,4.60
2023-01-28T10:33:56.633Z,4.40
2023-01-28T10:38:06.506Z,5.10
2023-01-28T10:42:18.047Z,5.40
2023-01-28T10:46:25.206Z,5.60
2023-01-28T10:50:31.987Z,5.20
2023-01-28T10:54:37.237Z,5.20
2023-01-28T10:58:51.731Z,4.90
2023-01-28T11:02:57.440Z,5.30
2023-01-28T11:07:04.227Z,4.60
2023-01-28T11:11:15.638Z,4.60
2023-01-28T11:15:21.412Z,4.70
2023-01-28T11:19:29.723Z,5.30
2023-01-28T11:23:36.111Z,4.90
2023-01-28T11:27:41.515Z,5.00
2023-01-28T11:31:46.840Z,4.90
2023-01-28T11:35:55.779Z,5.10
2023-01-28T11:40:06.200Z,4.70
2023-01-28T11:44:17.295Z,6.20
2023-01-28T11:48:27.414Z,4.80
2023-01-28T11:53:02.625Z,6.20
2023-01-28T11:57:08.662Z,6.20
2023-01-28T12:01:18.177Z,4.60
2023-01-28T12:05:38.582Z,7.10
2023-01-28T12:09:47.834Z,10.60
2023-01-28T12:13:58.086Z,8.30
2023-01-28T12:18:11.459Z,6.70
2023-01-28T12:22:22.285Z,9.70
2023-01-28T12:26:35.752Z,5.30
2023-01-28T12:30:46.714Z,5.80
2023-01-28T12:34:59.289Z,6.40
2023-01-28T12:39:12.032Z,6.90
2023-01-28T12:43:20.481Z,6.20
2023-01-28T12:47:28.361Z,6.50
2023-01-28T12:51:35.844Z,6.00
2023-01-28T12:55:42.525Z,5.90
2023-01-28T12:59:49.793Z,6.30
2023-01-28T13:03:58.693Z,5.60
2023-01-28T13:08:05.591Z,4.80
2023-01-28T13:12:13.876Z,5.90
2023-01-28T13:16:21.284Z,6.70
2023-01-28T13:20:39.654Z,5.40
2023-01-28T13:24:44.871Z,6.20
2023-01-28T13:28:51.159Z,6.40
2023-01-28T13:33:01.199Z,6.20
2023-01-28T13:37:09.114Z,7.80
2023-01-28T13:41:14.525Z,6.50
2023-01-28T13:45:24.469Z,4.80
2023-01-28T13:49:31.467Z,4.40
2023-01-28T13:53:40.932Z,6.90
2023-01-28T13:57:56.936Z,5.90
2023-01-28T14:02:24.811Z,5.50
2023-01-28T14:06:38.451Z,4.90
2023-01-28T14:10:50.290Z,6.20
2023-01-28T14:15:05.767Z,9.10
2023-01-28T14:19:13.395Z,8.10
2023-01-28T14:23:22.137Z,11.80
2023-01-28T14:27:28.828Z,37.90
2023-01-28T14:31:35.117Z,22.60
2023-01-28T14:35:45.363Z,24.20
2023-01-28T14:39:52.380Z,12.20
2023-01-28T14:43:58.237Z,17.30
2023-01-28T14:48:17.963Z,8.10
2023-01-28T14:52:32.684Z,7.70
2023-01-28T14:56:44.155Z,7.30
2023-01-28T15:00:55.786Z,7.50
2023-01-28T15:05:10.306Z,5.60
2023-01-28T15:09:15.715Z,4.40
2023-01-28T15:13:24.586Z,4.90
2023-01-28T15:17:29.826Z,6.00
2023-01-28T15:21:35.850Z,5.30
2023-01-28T15:25:41.166Z,5.70
2023-01-28T15:29:52.223Z,2.90
2023-01-28T15:34:01.284Z,6.20
2023-01-28T15:38:06.702Z,5.70
2023-01-28T15:46:16.514Z,6.70
2023-01-28T15:50:22.992Z,8.10
2023-01-28T15:54:30.374Z,7.80
2023-01-28T15:58:37.385Z,8.80
2023-01-28T16:02:46.736Z,8.30
2023-01-28T16:06:52.201Z,8.60
2023-01-28T16:10:58.139Z,11.00
2023-01-28T16:15:04.251Z,7.00
2023-01-28T16:19:09.502Z,7.40
2023-01-28T16:23:21.963Z,5.70
2023-01-28T16:31:31.031Z,6.40
2023-01-28T16:36:01.201Z,8.60
2023-01-28T16:40:02.447Z,8.70
2023-01-28T16:44:07.939Z,7.00
2023-01-28T16:48:13.342Z,7.70
2023-01-28T16:52:19.190Z,8.10
2023-01-28T16:56:47.527Z,5.10
2023-01-28T17:00:51.239Z,3.70
2023-01-28T17:04:56.543Z,4.80
2023-01-28T17:09:01.774Z,4.40
2023-01-28T17:13:07.195Z,3.60
2023-01-28T17:17:12.413Z,4.10
2023-01-28T17:21:18.868Z,3.80
2023-01-28T17:25:24.522Z,7.10
2023-01-28T17:29:29.708Z,5.00
2023-01-28T17:33:34.987Z,3.30
2023-01-28T17:37:40.292Z,5.60
2023-01-28T17:41:45.590Z,4.10
2023-01-28T17:45:51.260Z,3.60
2023-01-28T17:49:57.611Z,4.40
2023-01-28T17:58:06.544Z,5.10
2023-01-28T18:02:12.972Z,4.70
2023-01-28T18:06:18.708Z,4.80
2023-01-28T18:10:23.965Z,3.50
2023-01-28T18:14:29.211Z,3.50
2023-01-28T18:18:34.522Z,3.70
2023-01-28T18:22:39.777Z,2.90
2023-01-28T18:26:45.005Z,3.00
2023-01-28T18:30:50.261Z,6.50
2023-01-28T18:34:55.547Z,4.30
2023-01-28T18:39:00.740Z,4.40
2023-01-28T18:43:06.023Z,5.00
2023-01-28T18:47:11.564Z,5.90
2023-01-28T18:51:29.392Z,7.80
2023-01-28T18:55:35.431Z,3.40
2023-01-28T18:59:40.640Z,6.50
2023-01-28T19:03:45.861Z,6.10
2023-01-28T19:07:51.041Z,2.70
2023-01-28T19:11:56.290Z,4.20
2023-01-28T19:16:03.869Z,3.70
2023-01-28T19:20:10.457Z,4.50
2023-01-28T19:24:15.685Z,4.10
2023-01-28T19:28:21.405Z,1.80
2023-01-28T19:32:27.895Z,4.80
2023-01-28T19:40:40.324Z,2.90
2023-01-28T19:44:45.525Z,3.90
2023-01-28T19:48:50.751Z,3.10
2023-01-28T19:52:56.257Z,3.70
2023-01-28T19:57:01.626Z,2.00
2023-01-28T20:01:09.105Z,4.10
2023-01-28T20:05:15.316Z,2.80
2023-01-28T20:09:21.190Z,3.40
2023-01-28T20:13:26.517Z,2.80
2023-01-28T20:17:31.963Z,3.20
2023-01-28T20:21:37.291Z,2.90
2023-01-28T20:25:42.535Z,2.90
2023-01-28T20:29:47.756Z,3.00
2023-01-28T20:33:53.286Z,2.90
2023-01-28T20:37:58.480Z,3.20
2023-01-28T20:42:03.723Z,2.70
2023-01-28T20:46:11.030Z,2.80
2023-01-28T20:50:17.207Z,2.70
2023-01-28T20:58:27.153Z,2.80
2023-01-28T21:02:35.544Z,3.40
2023-01-28T21:06:41.282Z,2.70
2023-01-28T21:10:46.853Z,2.70
2023-01-28T21:14:52.053Z,3.20
2023-01-28T21:18:57.550Z,3.30
2023-01-28T21:23:02.798Z,1.70
2023-01-28T21:27:08.041Z,3.20
2023-01-28T21:31:15.952Z,3.60
2023-01-28T21:35:21.162Z,1.90
2023-01-28T21:39:26.615Z,5.40
2023-01-28T21:43:32.042Z,3.30
2023-01-28T21:47:37.371Z,3.40
2023-01-28T21:51:47.287Z,2.70
2023-01-28T21:55:52.550Z,3.60
2023-01-28T21:59:57.759Z,2.90
2023-01-28T22:04:03.077Z,2.70
2023-01-28T22:08:08.506Z,5.10
2023-01-28T22:12:15.226Z,2.30
2023-01-28T22:16:20.454Z,2.70
2023-01-28T22:20:25.849Z,3.00
2023-01-28T22:24:31.524Z,3.30
2023-01-28T22:28:37.466Z,3.80
2023-01-28T22:32:43.184Z,3.40
2023-01-28T22:36:48.533Z,2.80
2023-01-28T22:40:53.782Z,3.90
2023-01-28T22:44:58.990Z,3.00
2023-01-28T22:49:04.376Z,2.70
2023-01-28T22:53:09.610Z,3.00
2023-01-28T22:57:15.293Z,2.60
2023-01-28T23:01:20.534Z,3.00
2023-01-28T23:05:25.829Z,3.50
2023-01-28T23:09:31.078Z,3.70
2023-01-28T23:13:50.209Z,4.00
2023-01-28T23:18:12.737Z,3.80
2023-01-28T23:22:38.533Z,2.60
2023-01-28T23:26:43.752Z,2.70
2023-01-28T23:30:49.044Z,2.50
2023-01-28T23:34:54.401Z,2.60
2023-01-28T23:38:59.684Z,2.90
2023-01-28T23:43:05.794Z,3.00
2023-01-28T23:47:11.399Z,2.80
2023-01-28T23:51:16.688Z,2.90
2023-01-28T23:55:21.947Z,2.90
2023-01-28T23:59:27.206Z,2.80
